createdAt,value
2018-03-27T00:00:36.082Z,25.20
2018-03-27T00:03:02.391Z,27.70
2018-03-27T00:05:29.100Z,26.87
2018-03-27T00:07:56.292Z,24.27
2018-03-27T00:10:23.898Z,27.20
2018-03-27T00:12:51.164Z,25.45
2018-03-27T00:15:18.345Z,25.08
2018-03-27T00:17:44.585Z,25.48
2018-03-27T00:20:11.215Z,24.00
2018-03-27T00:22:38.333Z,24.35
2018-03-27T00:25:04.562Z,23.42
2018-03-27T00:27:44.143Z,25.15
2018-03-27T00:30:22.863Z,24.65
2018-03-27T00:33:03.132Z,24.10
2018-03-27T00:35:41.951Z,24.33
2018-03-27T00:38:21.275Z,23.98
2018-03-27T00:40:47.377Z,24.48
2018-03-27T00:43:14.741Z,23.35
2018-03-27T00:45:42.365Z,24.73
2018-03-27T00:48:08.882Z,24.92
2018-03-27T00:50:36.748Z,23.75
2018-03-27T00:53:04.514Z,24.35
2018-03-27T00:55:30.714Z,25.10
2018-03-27T01:00:29.708Z,24.63
2018-03-27T01:02:55.960Z,23.67
2018-03-27T01:05:22.196Z,23.05
2018-03-27T01:07:48.991Z,25.08
2018-03-27T01:10:16.883Z,24.85
2018-03-27T01:12:43.956Z,23.85
2018-03-27T01:15:10.167Z,24.70
2018-03-27T01:17:36.842Z,27.10
2018-03-27T01:20:04.429Z,25.50
2018-03-27T01:22:31.947Z,26.50
2018-03-27T01:24:58.334Z,26.45
2018-03-27T01:27:24.591Z,27.33
2018-03-27T01:29:51.046Z,25.83
2018-03-27T01:32:18.592Z,24.65
2018-03-27T01:34:44.968Z,27.30
2018-03-27T01:37:12.391Z,24.73
2018-03-27T01:39:39.425Z,25.50
2018-03-27T01:42:07.603Z,25.55
2018-03-27T01:44:33.806Z,26.75
2018-03-27T01:47:00.516Z,28.35
2018-03-27T01:49:28.087Z,27.20
2018-03-27T01:51:55.679Z,27.15
2018-03-27T01:54:22.438Z,26.77
2018-03-27T01:56:49.171Z,28.35
2018-03-27T01:59:15.772Z,26.55
2018-03-27T02:01:42.295Z,27.05
2018-03-27T02:04:09.988Z,28.90
2018-03-27T02:06:37.519Z,27.90
2018-03-27T02:09:04.607Z,26.65
2018-03-27T02:11:37.157Z,25.37
2018-03-27T02:14:10.756Z,24.80
2018-03-27T02:16:43.622Z,25.35
2018-03-27T02:19:16.088Z,28.10
2018-03-27T02:34:47.722Z,27.30
2018-03-27T02:37:14.630Z,30.05
2018-03-27T02:39:42.220Z,26.20
2018-03-27T02:42:09.160Z,27.00
2018-03-27T02:44:36.135Z,27.27
2018-03-27T02:47:03.117Z,32.42
2018-03-27T02:49:30.027Z,29.42
2018-03-27T02:51:56.483Z,30.42
2018-03-27T02:54:23.177Z,29.30
2018-03-27T02:56:50.841Z,28.67
2018-03-27T02:59:17.804Z,27.05
2018-03-27T03:01:45.245Z,27.25
2018-03-27T03:04:12.313Z,26.10
2018-03-27T03:06:38.818Z,28.17
2018-03-27T03:09:06.351Z,27.23
2018-03-27T03:11:32.692Z,28.40
2018-03-27T03:14:00.386Z,30.50
2018-03-27T03:16:27.100Z,28.58
2018-03-27T03:18:53.327Z,29.25
2018-03-27T03:21:19.517Z,29.15
2018-03-27T03:23:46.278Z,28.30
2018-03-27T03:26:13.293Z,30.02
2018-03-27T03:28:40.372Z,28.35
2018-03-27T03:31:06.684Z,27.60
2018-03-27T03:33:33.546Z,28.85
2018-03-27T03:36:01.143Z,27.20
2018-03-27T03:38:28.712Z,25.92
2018-03-27T03:40:56.545Z,27.60
2018-03-27T03:43:23.172Z,28.23
2018-03-27T03:45:50.448Z,27.13
2018-03-27T03:48:17.642Z,29.50
2018-03-27T03:50:44.164Z,30.27
2018-03-27T03:53:10.404Z,30.27
2018-03-27T03:55:36.607Z,27.95
2018-03-27T03:58:03.164Z,29.87
2018-03-27T04:00:30.883Z,27.70
2018-03-27T04:02:58.400Z,27.60
2018-03-27T04:05:24.877Z,27.20
2018-03-27T04:07:52.123Z,28.00
2018-03-27T04:10:19.549Z,26.67
2018-03-27T04:12:46.530Z,28.90
2018-03-27T04:15:13.556Z,26.52
2018-03-27T04:17:40.803Z,27.20
2018-03-27T04:20:07.706Z,27.95
2018-03-27T04:22:34.500Z,25.10
2018-03-27T04:25:01.732Z,26.62
2018-03-27T04:27:28.769Z,32.85
2018-03-27T04:29:54.970Z,29.52
2018-03-27T04:32:22.255Z,27.30
2018-03-27T04:34:49.028Z,29.40
2018-03-27T04:37:15.990Z,29.75
2018-03-27T04:39:43.607Z,29.30
2018-03-27T04:42:10.173Z,26.60
2018-03-27T04:44:38.048Z,27.65
2018-03-27T04:47:05.131Z,30.70
2018-03-27T04:49:31.952Z,27.62
2018-03-27T04:51:58.396Z,28.65
2018-03-27T04:54:25.043Z,30.20
2018-03-27T04:56:51.614Z,30.17
2018-03-27T04:59:18.774Z,33.88
2018-03-27T05:01:45.734Z,34.47
2018-03-27T05:04:13.056Z,29.50
2018-03-27T05:06:40.397Z,33.17
2018-03-27T05:09:07.626Z,31.55
2018-03-27T05:11:35.233Z,28.95
2018-03-27T05:14:02.317Z,27.70
2018-03-27T05:16:28.528Z,30.42
2018-03-27T05:18:56.507Z,26.05
2018-03-27T05:21:22.794Z,31.33
2018-03-27T05:23:49.074Z,31.35
2018-03-27T05:26:15.912Z,29.63
2018-03-27T05:28:42.956Z,27.75
2018-03-27T05:31:09.151Z,27.23
2018-03-27T05:33:35.488Z,29.17
2018-03-27T05:36:02.581Z,30.52
2018-03-27T05:38:29.173Z,29.25
2018-03-27T05:40:57.057Z,27.62
2018-03-27T05:43:24.038Z,28.40
2018-03-27T05:45:50.892Z,29.85
2018-03-27T05:48:17.890Z,29.52
2018-03-27T05:50:44.820Z,31.35
2018-03-27T05:53:12.418Z,30.88
2018-03-27T05:55:39.070Z,30.40
2018-03-27T05:58:06.627Z,30.67
2018-03-27T06:00:34.416Z,30.33
2018-03-27T06:03:01.327Z,31.12
2018-03-27T06:05:28.280Z,30.17
2018-03-27T06:07:54.497Z,32.72
2018-03-27T06:10:21.320Z,32.38
2018-03-27T06:12:48.929Z,34.45
2018-03-27T06:15:15.163Z,37.88
2018-03-27T06:17:41.482Z,35.75
2018-03-27T06:20:07.688Z,33.40
2018-03-27T06:22:33.894Z,32.10
2018-03-27T06:25:00.263Z,33.65
2018-03-27T06:27:26.506Z,31.30
2018-03-27T06:29:52.980Z,35.70
2018-03-27T06:32:21.071Z,36.30
2018-03-27T06:34:47.289Z,34.35
2018-03-27T06:37:13.839Z,32.10
2018-03-27T06:39:40.984Z,32.85
2018-03-27T06:42:07.882Z,34.47
2018-03-27T06:44:34.053Z,32.22
2018-03-27T06:47:00.457Z,31.35
2018-03-27T06:49:28.009Z,29.33
2018-03-27T06:51:56.306Z,36.25
2018-03-27T06:54:24.917Z,35.00
2018-03-27T06:56:52.159Z,36.83
2018-03-27T06:59:18.755Z,35.28
2018-03-27T07:01:46.041Z,33.28
2018-03-27T07:04:13.806Z,34.30
2018-03-27T07:06:40.840Z,33.28
2018-03-27T07:09:07.163Z,36.80
2018-03-27T07:11:33.368Z,31.35
2018-03-27T07:13:59.659Z,30.95
2018-03-27T07:16:26.020Z,34.70
2018-03-27T07:18:52.991Z,34.50
2018-03-27T07:21:20.014Z,36.50
2018-03-27T07:23:47.148Z,31.40
2018-03-27T07:26:14.864Z,32.75
2018-03-27T07:28:41.903Z,33.78
2018-03-27T07:31:08.614Z,28.52
2018-03-27T07:33:35.178Z,33.10
2018-03-27T07:36:01.963Z,32.55
2018-03-27T07:38:28.210Z,32.58
2018-03-27T07:40:54.451Z,34.25
2018-03-27T07:43:20.854Z,33.15
2018-03-27T07:45:48.504Z,35.15
2018-03-27T07:48:15.394Z,33.60
2018-03-27T07:50:42.430Z,31.67
2018-03-27T07:53:09.334Z,33.92
2018-03-27T07:55:35.544Z,31.80
2018-03-27T07:58:03.071Z,32.22
2018-03-27T08:00:31.456Z,34.92
2018-03-27T08:02:59.100Z,36.40
2018-03-27T08:05:25.741Z,37.70
2018-03-27T08:07:52.935Z,32.33
2018-03-27T08:10:19.828Z,35.05
2018-03-27T08:12:46.642Z,34.17
2018-03-27T08:15:12.844Z,36.15
2018-03-27T08:17:39.602Z,35.92
2018-03-27T08:20:05.880Z,33.25
2018-03-27T08:22:33.412Z,32.50
2018-03-27T08:25:00.099Z,35.03
2018-03-27T08:27:26.583Z,33.25
2018-03-27T08:29:52.836Z,32.55
2018-03-27T08:32:19.782Z,34.20
2018-03-27T08:34:46.962Z,32.47
2018-03-27T08:37:14.595Z,29.42
2018-03-27T08:39:42.456Z,32.28
2018-03-27T08:42:09.864Z,32.22
2018-03-27T08:44:36.843Z,31.05
2018-03-27T08:47:03.151Z,28.00
2018-03-27T08:49:30.301Z,27.40
2018-03-27T08:51:56.538Z,27.33
2018-03-27T08:54:23.301Z,27.02
2018-03-27T08:56:49.835Z,30.20
2018-03-27T08:59:16.043Z,30.17
2018-03-27T09:01:42.785Z,27.40
2018-03-27T09:04:09.558Z,27.33
2018-03-27T09:06:37.797Z,23.35
2018-03-27T09:09:04.040Z,30.50
2018-03-27T09:11:30.295Z,28.05
2018-03-27T09:13:57.323Z,29.12
2018-03-27T09:16:24.793Z,25.08
2018-03-27T09:18:52.136Z,25.02
2018-03-27T09:21:19.549Z,28.27
2018-03-27T09:23:46.905Z,30.52
2018-03-27T09:26:13.162Z,25.50
2018-03-27T09:28:40.342Z,25.25
2018-03-27T09:31:06.798Z,22.37
2018-03-27T09:33:33.011Z,21.62
2018-03-27T09:35:59.539Z,25.15
2018-03-27T09:38:25.939Z,23.95
2018-03-27T09:40:53.434Z,24.15
2018-03-27T09:43:21.046Z,24.33
2018-03-27T09:45:48.038Z,24.48
2018-03-27T09:48:14.239Z,25.92
2018-03-27T09:50:41.819Z,26.20
2018-03-27T09:53:08.560Z,24.08
2018-03-27T09:55:34.768Z,26.12
2018-03-27T09:58:02.503Z,25.90
2018-03-27T10:00:35.073Z,25.98
2018-03-27T10:03:01.647Z,27.65
2018-03-27T10:05:28.623Z,26.33
2018-03-27T10:07:56.214Z,27.50
2018-03-27T10:10:22.703Z,27.30
2018-03-27T10:12:49.266Z,27.65
2018-03-27T10:15:16.290Z,26.45
2018-03-27T10:17:43.337Z,24.95
2018-03-27T10:20:11.183Z,26.37
2018-03-27T10:22:38.709Z,29.52
2018-03-27T10:25:05.250Z,26.83
2018-03-27T10:27:32.528Z,26.60
2018-03-27T10:30:00.075Z,26.25
2018-03-27T10:32:28.216Z,27.60
2018-03-27T10:34:55.636Z,29.58
2018-03-27T10:37:22.790Z,26.85
2018-03-27T10:39:49.617Z,27.10
2018-03-27T10:42:17.271Z,28.58
2018-03-27T10:44:45.577Z,26.73
2018-03-27T10:47:12.472Z,26.27
2018-03-27T10:49:39.557Z,25.88
2018-03-27T10:52:06.734Z,27.23
2018-03-27T10:54:32.945Z,23.60
2018-03-27T10:56:59.988Z,26.70
2018-03-27T10:59:26.665Z,23.55
2018-03-27T11:01:53.661Z,23.87
2018-03-27T11:04:19.935Z,23.15
2018-03-27T11:06:46.479Z,23.58
2018-03-27T11:09:13.423Z,23.90
2018-03-27T11:11:39.653Z,24.60
2018-03-27T11:14:06.656Z,24.15
2018-03-27T11:16:35.123Z,21.25
2018-03-27T11:19:02.368Z,25.23
2018-03-27T11:21:29.932Z,26.90
2018-03-27T11:23:56.226Z,26.90
2018-03-27T11:26:23.718Z,26.58
2018-03-27T11:28:49.914Z,25.27
2018-03-27T11:31:16.096Z,26.48
2018-03-27T11:33:42.874Z,27.65
2018-03-27T11:36:09.612Z,25.80
2018-03-27T11:38:36.077Z,26.30
2018-03-27T11:41:03.588Z,27.00
2018-03-27T11:43:31.111Z,24.87
2018-03-27T11:45:57.533Z,24.30
2018-03-27T11:48:24.597Z,24.77
2018-03-27T11:50:51.469Z,26.08
2018-03-27T11:53:19.391Z,25.00
2018-03-27T11:55:47.673Z,25.90
2018-03-27T11:58:14.890Z,25.48
2018-03-27T12:00:41.489Z,24.08
2018-03-27T12:03:09.050Z,24.70
2018-03-27T12:05:36.021Z,23.05
2018-03-27T12:08:03.076Z,25.80
2018-03-27T12:10:29.959Z,23.30
2018-03-27T12:12:56.185Z,22.20
2018-03-27T12:15:22.985Z,22.58
2018-03-27T12:17:49.736Z,20.85
2018-03-27T12:20:17.404Z,23.05
2018-03-27T12:22:44.455Z,22.90
2018-03-27T12:25:10.702Z,20.62
2018-03-27T12:27:38.081Z,21.00
2018-03-27T12:30:04.551Z,21.58
2018-03-27T12:32:32.182Z,21.98
2018-03-27T12:34:58.788Z,21.90
2018-03-27T12:37:25.100Z,21.75
2018-03-27T12:39:52.441Z,22.67
2018-03-27T12:42:19.713Z,21.17
2018-03-27T12:44:46.593Z,20.30
2018-03-27T12:47:12.806Z,22.10
2018-03-27T12:49:39.769Z,21.95
2018-03-27T12:52:06.838Z,20.15
2018-03-27T12:54:34.238Z,21.92
2018-03-27T12:57:01.510Z,23.02
2018-03-27T12:59:28.174Z,22.90
2018-03-27T13:01:55.054Z,20.55
2018-03-27T13:04:22.591Z,21.75
2018-03-27T13:06:49.072Z,22.10
2018-03-27T13:09:16.126Z,22.13
2018-03-27T13:11:43.102Z,21.92
2018-03-27T13:14:10.375Z,22.87
2018-03-27T13:16:36.764Z,20.92
2018-03-27T13:19:02.981Z,22.15
2018-03-27T13:21:29.253Z,21.98
2018-03-27T13:23:56.025Z,20.73
2018-03-27T13:26:23.213Z,19.90
2018-03-27T13:28:50.435Z,17.60
2018-03-27T13:31:17.744Z,17.05
2018-03-27T13:33:44.020Z,16.17
2018-03-27T13:36:10.241Z,14.23
2018-03-27T13:38:37.223Z,15.10
2018-03-27T13:41:04.088Z,18.73
2018-03-27T13:43:30.557Z,20.20
2018-03-27T13:45:58.206Z,18.20
2018-03-27T13:48:25.738Z,17.05
2018-03-27T13:50:53.210Z,17.52
2018-03-27T13:53:20.095Z,17.55
2018-03-27T13:55:46.538Z,19.27
2018-03-27T13:58:12.738Z,17.50
2018-03-27T14:00:39.769Z,17.70
2018-03-27T14:03:06.997Z,17.37
2018-03-27T14:05:34.039Z,16.95
2018-03-27T14:08:00.472Z,14.40
2018-03-27T14:10:27.046Z,13.35
2018-03-27T14:12:54.799Z,14.00
2018-03-27T14:15:21.787Z,14.70
2018-03-27T14:17:47.982Z,13.40
2018-03-27T14:20:14.964Z,14.13
2018-03-27T14:22:41.854Z,15.93
2018-03-27T14:25:08.238Z,14.35
2018-03-27T14:27:35.372Z,15.93
2018-03-27T14:30:01.775Z,13.50
2018-03-27T14:32:28.808Z,14.55
2018-03-27T14:34:55.104Z,14.57
2018-03-27T14:37:22.335Z,13.40
2018-03-27T14:39:49.381Z,13.48
2018-03-27T14:42:16.654Z,13.02
2018-03-27T14:44:43.703Z,14.80
2018-03-27T14:47:10.012Z,13.02
2018-03-27T14:49:36.265Z,14.32
2018-03-27T14:52:02.532Z,14.25
2018-03-27T14:54:30.606Z,13.93
2018-03-27T14:56:57.545Z,13.55
2018-03-27T14:59:24.014Z,15.13
2018-03-27T15:01:51.889Z,16.60
2018-03-27T15:04:18.751Z,16.37
2018-03-27T15:06:44.991Z,14.00
2018-03-27T15:09:11.842Z,15.88
2018-03-27T15:11:38.299Z,15.27
2018-03-27T15:14:06.148Z,14.68
2018-03-27T15:16:33.154Z,14.30
2018-03-27T15:18:59.339Z,15.55
2018-03-27T15:21:26.273Z,17.08
2018-03-27T15:23:53.011Z,14.93
2018-03-27T15:26:19.243Z,15.07
2018-03-27T15:28:47.331Z,13.80
2018-03-27T15:31:14.863Z,16.45
2018-03-27T15:33:41.321Z,16.60
2018-03-27T15:36:08.300Z,13.75
2018-03-27T15:38:34.560Z,15.88
2018-03-27T15:41:01.481Z,15.63
2018-03-27T15:43:27.953Z,15.18
2018-03-27T15:45:54.877Z,13.85
2018-03-27T15:48:22.129Z,14.50
2018-03-27T15:50:49.458Z,16.00
2018-03-27T15:53:15.958Z,14.68
2018-03-27T15:55:43.041Z,15.23
2018-03-27T15:58:09.981Z,14.63
2018-03-27T16:00:36.351Z,16.75
2018-03-27T16:03:04.296Z,14.80
2018-03-27T16:05:31.879Z,14.13
2018-03-27T16:07:58.113Z,14.38
2018-03-27T16:10:24.392Z,14.35
2018-03-27T16:12:50.956Z,15.18
2018-03-27T16:15:17.645Z,14.80
2018-03-27T16:17:44.715Z,15.20
2018-03-27T16:20:11.388Z,15.40
2018-03-27T16:22:38.649Z,14.30
2018-03-27T16:25:05.061Z,13.50
2018-03-27T16:27:31.350Z,13.20
2018-03-27T16:29:58.202Z,15.93
2018-03-27T16:32:25.823Z,15.63
2018-03-27T16:34:52.899Z,16.77
2018-03-27T16:37:19.699Z,14.77
2018-03-27T16:39:46.045Z,15.73
2018-03-27T16:42:13.291Z,16.90
2018-03-27T16:44:39.524Z,15.32
2018-03-27T16:47:06.469Z,16.20
2018-03-27T16:49:32.795Z,15.75
2018-03-27T16:51:58.983Z,17.37
2018-03-27T16:54:25.800Z,15.30
2018-03-27T16:56:52.916Z,16.70
2018-03-27T16:59:19.136Z,14.98
2018-03-27T17:01:45.399Z,14.50
2018-03-27T17:04:12.473Z,14.43
2018-03-27T17:06:39.644Z,17.27
2018-03-27T17:09:06.064Z,15.15
2018-03-27T17:11:32.278Z,17.15
2018-03-27T17:13:58.969Z,15.57
2018-03-27T17:16:26.165Z,15.93
2018-03-27T17:18:53.412Z,16.08
2018-03-27T17:21:20.266Z,17.00
2018-03-27T17:23:47.086Z,14.38
2018-03-27T17:26:13.400Z,14.90
2018-03-27T17:28:40.940Z,14.27
2018-03-27T17:31:07.329Z,41.22
2018-03-27T17:33:34.201Z,35.42
2018-03-27T17:36:00.659Z,25.88
2018-03-27T17:38:28.612Z,20.20
2018-03-27T17:40:55.341Z,19.23
2018-03-27T17:43:23.320Z,20.75
2018-03-27T17:45:50.315Z,19.85
2018-03-27T17:48:16.751Z,19.55
2018-03-27T17:50:42.977Z,19.27
2018-03-27T17:53:09.811Z,19.15
2018-03-27T17:55:37.006Z,17.95
2018-03-27T17:58:04.278Z,19.08
2018-03-27T18:00:31.252Z,19.45
2018-03-27T18:02:58.386Z,18.30
2018-03-27T18:05:25.914Z,18.35
2018-03-27T18:07:53.133Z,20.10
2018-03-27T18:10:19.348Z,19.17
2018-03-27T18:12:45.688Z,18.12
2018-03-27T18:15:12.225Z,19.42
2018-03-27T18:17:39.429Z,19.50
2018-03-27T18:20:07.997Z,18.62
2018-03-27T18:22:34.314Z,19.17
2018-03-27T18:25:02.106Z,22.02
2018-03-27T18:27:29.673Z,21.20
2018-03-27T18:29:56.762Z,18.15
2018-03-27T18:32:23.297Z,19.83
2018-03-27T18:34:49.685Z,18.85
2018-03-27T18:37:16.962Z,20.15
2018-03-27T18:39:44.207Z,19.45
2018-03-27T18:42:10.831Z,18.55
2018-03-27T18:44:38.413Z,18.83
2018-03-27T18:47:04.907Z,20.85
2018-03-27T18:49:31.571Z,18.37
2018-03-27T18:51:58.726Z,17.87
2018-03-27T18:54:25.934Z,16.30
2018-03-27T18:56:52.987Z,16.30
2018-03-27T18:59:19.360Z,17.20
2018-03-27T19:01:46.135Z,19.60
2018-03-27T19:04:14.188Z,18.33
2018-03-27T19:06:40.422Z,16.98
2018-03-27T19:09:07.611Z,15.80
2018-03-27T19:11:35.339Z,20.85
2018-03-27T19:14:02.392Z,16.83
2018-03-27T19:16:31.737Z,18.85
2018-03-27T19:28:44.070Z,20.10
2018-03-27T19:31:11.716Z,19.37
2018-03-27T19:33:38.017Z,19.50
2018-03-27T19:36:04.534Z,25.30
2018-03-27T19:38:32.047Z,22.80
2018-03-27T19:40:59.245Z,22.33
2018-03-27T19:43:26.348Z,21.73
2018-03-27T19:45:53.559Z,21.33
2018-03-27T19:48:20.668Z,25.20
2018-03-27T19:50:46.890Z,22.08
2018-03-27T19:53:13.175Z,23.33
2018-03-27T19:55:39.490Z,23.77
2018-03-27T19:58:05.938Z,22.15
2018-03-27T20:00:32.371Z,20.70
2018-03-27T20:02:58.680Z,21.23
2018-03-27T20:05:25.185Z,18.30
2018-03-27T20:07:53.123Z,18.80
2018-03-27T20:10:19.470Z,20.15
2018-03-27T20:12:46.330Z,18.45
2018-03-27T20:15:14.192Z,19.12
2018-03-27T20:17:40.552Z,19.23
2018-03-27T20:20:06.917Z,18.02
2018-03-27T20:22:33.540Z,20.58
2018-03-27T20:24:59.818Z,21.20
2018-03-27T20:27:27.133Z,20.80
2018-03-27T20:29:53.528Z,19.33
2018-03-27T20:32:22.386Z,21.33
2018-03-27T20:34:49.880Z,19.87
2018-03-27T20:37:17.409Z,17.45
2018-03-27T20:39:44.713Z,17.52
2018-03-27T20:42:11.385Z,29.30
2018-03-27T20:44:38.850Z,23.20
2018-03-27T20:47:06.574Z,18.65
2018-03-27T20:49:34.481Z,20.25
2018-03-27T20:52:01.536Z,18.17
2018-03-27T20:54:28.378Z,16.73
2018-03-27T20:56:54.608Z,17.85
2018-03-27T21:01:53.782Z,16.42
2018-03-27T21:04:20.318Z,16.73
2018-03-27T21:06:47.585Z,15.90
2018-03-27T21:09:13.896Z,16.20
2018-03-27T21:11:40.443Z,16.92
2018-03-27T21:14:07.608Z,18.73
2018-03-27T21:16:34.006Z,15.30
2018-03-27T21:19:01.592Z,17.90
2018-03-27T21:21:28.851Z,17.30
2018-03-27T21:23:56.923Z,16.85
2018-03-27T21:26:24.542Z,17.17
2018-03-27T21:28:51.284Z,16.92
2018-03-27T21:31:17.498Z,16.62
2018-03-27T21:33:43.722Z,16.45
2018-03-27T21:36:10.044Z,16.05
2018-03-27T21:38:36.352Z,16.90
2018-03-27T21:41:03.440Z,16.85
2018-03-27T21:43:30.289Z,17.00
2018-03-27T21:45:57.174Z,17.30
2018-03-27T21:48:24.022Z,16.87
2018-03-27T21:50:50.812Z,15.68
2018-03-27T21:53:17.348Z,18.15
2018-03-27T21:55:43.599Z,18.08
2018-03-27T21:58:09.856Z,15.32
2018-03-27T22:00:36.065Z,17.05
2018-03-27T22:03:03.194Z,17.00
2018-03-27T22:05:30.236Z,16.00
2018-03-27T22:07:57.216Z,16.15
2018-03-27T22:10:24.899Z,16.00
2018-03-27T22:12:52.391Z,16.25
2018-03-27T22:15:19.657Z,14.77
2018-03-27T22:17:45.891Z,15.70
2018-03-27T22:20:12.756Z,17.55
2018-03-27T22:22:40.154Z,17.15
2018-03-27T22:25:07.480Z,15.55
2018-03-27T22:27:34.606Z,19.95
2018-03-27T22:30:01.360Z,18.25
2018-03-27T22:32:27.579Z,18.10
2018-03-27T22:34:53.783Z,17.02
2018-03-27T22:37:20.074Z,19.30
2018-03-27T22:39:47.459Z,18.45
2018-03-27T22:42:14.473Z,19.70
2018-03-27T22:44:41.431Z,19.42
2018-03-27T22:47:07.929Z,18.65
2018-03-27T22:49:35.695Z,19.75
2018-03-27T22:52:01.975Z,19.65
2018-03-27T22:54:28.501Z,18.40
2018-03-27T22:56:55.402Z,18.27
2018-03-27T22:59:22.509Z,19.25
2018-03-27T23:01:49.586Z,18.67
2018-03-27T23:04:16.091Z,17.37
2018-03-27T23:06:43.409Z,17.58
2018-03-27T23:09:10.386Z,18.23
2018-03-27T23:11:37.082Z,18.60
2018-03-27T23:14:05.417Z,20.30
2018-03-27T23:16:32.187Z,19.08
2018-03-27T23:18:59.158Z,16.30
2018-03-27T23:21:26.125Z,18.75
2018-03-27T23:23:53.761Z,20.08
2018-03-27T23:26:21.277Z,18.35
2018-03-27T23:28:48.789Z,18.08
2018-03-27T23:31:16.399Z,18.65
2018-03-27T23:33:42.722Z,16.42
2018-03-27T23:36:09.899Z,18.67
2018-03-27T23:38:36.852Z,18.30
2018-03-27T23:41:04.627Z,19.20
2018-03-27T23:43:32.896Z,19.02
2018-03-27T23:45:59.950Z,17.77
2018-03-27T23:48:27.431Z,17.60
2018-03-27T23:50:54.082Z,20.10
2018-03-27T23:53:21.490Z,14.82
2018-03-27T23:55:49.098Z,18.05
2018-03-27T23:58:16.727Z,17.35
